Time;durP1;ratioP1;P1;durP2;ratioP2;P2;SDS_P1;SDS_P2;PMS_P1;PMS_P2;Temp;Humidity;BMP_temperature;BMP_pressure;BME280_temperature;BME280_humidity;BME280_pressure;Samples;Min_cycle;Max_cycle;Signal;HPM_P1;HPM_P2
2021/09/02 00:02:17;;;;;;;7.67;6.70;;;11.90;99.90;;;;;;5078550;28;20166;-43
2021/09/02 00:04:43;;;;;;;8.40;7.60;;;11.90;99.90;;;;;;5079143;28;20490;-45
2021/09/02 00:07:08;;;;;;;8.10;7.40;;;11.90;99.90;;;;;;5078698;28;20236;-45
2021/09/02 00:09:34;;;;;;;8.07;7.27;;;11.90;99.90;;;;;;5078846;28;20531;-45
2021/09/02 00:12:01;;;;;;;7.80;7.00;;;11.80;99.90;;;;;;5078699;28;20179;-45
2021/09/02 00:14:28;;;;;;;8.63;7.10;;;11.80;99.90;;;;;;5078634;28;20169;-45
2021/09/02 00:16:53;;;;;;;8.50;7.70;;;11.80;99.90;;;;;;5076211;28;20520;-45
2021/09/02 00:19:19;;;;;;;7.63;6.63;;;11.70;99.90;;;;;;5078483;28;20451;-45
2021/09/02 00:21:45;;;;;;;8.23;7.40;;;11.60;99.90;;;;;;5078412;28;20184;-45
2021/09/02 00:24:11;;;;;;;9.70;7.30;;;11.70;99.90;;;;;;5078227;28;20169;-44
2021/09/02 00:26:37;;;;;;;8.07;7.25;;;11.60;99.90;;;;;;5078523;28;20204;-45
2021/09/02 00:29:02;;;;;;;7.70;7.00;;;11.60;99.90;;;;;;5078305;28;20193;-45
2021/09/02 00:31:28;;;;;;;8.10;7.25;;;11.60;99.90;;;;;;5077952;28;20502;-45
2021/09/02 00:33:54;;;;;;;8.63;7.73;;;11.60;99.90;;;;;;5093714;28;20494;-43
2021/09/02 00:36:20;;;;;;;7.70;7.00;;;11.60;99.90;;;;;;5077263;28;20831;-43
2021/09/02 00:38:45;;;;;;;8.07;7.27;;;11.60;99.90;;;;;;5077759;28;20199;-43
2021/09/02 00:41:13;;;;;;;7.97;7.27;;;11.50;99.90;;;;;;5078167;28;20212;-43
2021/09/02 00:43:40;;;;;;;7.63;6.93;;;11.50;99.90;;;;;;5077634;28;20518;-45
2021/09/02 00:46:16;;;;;;;8.90;7.80;;;11.50;99.90;;;;;;5078213;28;20423;-44
2021/09/02 00:48:49;;;;;;;8.40;7.50;;;11.50;99.90;;;;;;5077653;28;20526;-44
2021/09/02 00:51:16;;;;;;;11.30;7.63;;;11.40;99.90;;;;;;5077800;28;20419;-45
2021/09/02 00:53:47;;;;;;;7.47;6.67;;;11.40;99.90;;;;;;5077987;28;20500;-44
2021/09/02 00:56:13;;;;;;;6.43;5.83;;;11.40;99.90;;;;;;5078082;28;20439;-44
2021/09/02 00:58:41;;;;;;;8.53;7.40;;;11.40;99.90;;;;;;5085065;28;20470;-45
2021/09/02 01:01:06;;;;;;;8.40;7.50;;;11.30;99.90;;;;;;5098080;28;20433;-45
2021/09/02 01:03:35;;;;;;;8.90;8.00;;;11.30;99.90;;;;;;5113782;28;20449;-45
2021/09/02 01:06:01;;;;;;;8.23;7.10;;;11.20;99.90;;;;;;5079044;28;20223;-45
2021/09/02 01:08:27;;;;;;;8.40;6.80;;;11.20;99.90;;;;;;5080050;28;20958;-45
2021/09/02 01:10:52;;;;;;;8.27;7.00;;;11.20;99.90;;;;;;5099026;28;20188;-44
2021/09/02 01:13:22;;;;;;;7.80;7.00;;;11.20;99.90;;;;;;5098385;28;20427;-45
2021/09/02 01:15:48;;;;;;;8.50;7.70;;;11.20;99.90;;;;;;5098738;28;20203;-44
2021/09/02 01:18:14;;;;;;;7.90;7.10;;;11.20;99.90;;;;;;5098199;28;20468;-44
2021/09/02 01:20:40;;;;;;;7.35;6.65;;;11.10;99.90;;;;;;5098039;28;20426;-45
2021/09/02 01:23:07;;;;;;;9.27;8.00;;;11.10;99.90;;;;;;5098073;28;20200;-45
2021/09/02 01:25:42;;;;;;;8.87;7.50;;;11.10;99.90;;;;;;5097942;28;20176;-45
2021/09/02 01:28:09;;;;;;;8.50;7.80;;;11.10;99.90;;;;;;5097859;28;20593;-45
2021/09/02 01:30:36;;;;;;;7.83;6.93;;;11.10;99.90;;;;;;5097205;28;20244;-44
2021/09/02 01:33:02;;;;;;;7.80;6.50;;;11.10;99.90;;;;;;5087385;28;20443;-45
2021/09/02 01:35:31;;;;;;;6.93;6.30;;;11.00;99.90;;;;;;5078138;28;20177;-45
2021/09/02 01:38:00;;;;;;;7.73;7.00;;;11.00;99.90;;;;;;5077898;28;20924;-44
2021/09/02 01:40:29;;;;;;;8.20;7.27;;;11.00;99.90;;;;;;5078226;28;20782;-45
2021/09/02 01:43:19;;;;;;;8.23;7.40;;;11.00;99.90;;;;;;5077605;28;20434;-44
2021/09/02 01:45:45;;;;;;;10.73;8.33;;;11.00;99.90;;;;;;5082095;28;20467;-45
2021/09/02 01:48:11;;;;;;;8.17;7.37;;;10.90;99.90;;;;;;5085994;28;20451;-45
2021/09/02 01:50:40;;;;;;;8.53;7.60;;;10.90;99.90;;;;;;5077805;28;20447;-45
2021/09/02 01:53:07;;;;;;;7.87;7.13;;;10.90;99.90;;;;;;5080497;28;20287;-45
2021/09/02 01:55:34;;;;;;;7.63;6.90;;;10.90;99.90;;;;;;5085168;28;20531;-44
2021/09/02 01:58:00;;;;;;;7.13;6.43;;;10.90;99.90;;;;;;5098347;28;20458;-45
2021/09/02 02:00:25;;;;;;;6.90;6.20;;;10.80;99.90;;;;;;5096887;28;20487;-45
2021/09/02 02:02:51;;;;;;;9.17;6.70;;;10.80;99.90;;;;;;5097756;28;20482;-45
2021/09/02 02:05:18;;;;;;;8.70;6.50;;;10.70;99.90;;;;;;5098178;28;20172;-44
2021/09/02 02:07:44;;;;;;;9.13;7.60;;;10.80;99.90;;;;;;5097916;28;20193;-45
2021/09/02 02:10:13;;;;;;;7.80;7.00;;;10.70;99.90;;;;;;5097626;28;20709;-45
2021/09/02 02:12:39;;;;;;;7.30;6.60;;;10.70;99.90;;;;;;5098133;28;20406;-45
2021/09/02 02:15:06;;;;;;;7.70;6.90;;;10.60;99.90;;;;;;5097382;28;20693;-43
2021/09/02 02:17:32;;;;;;;7.73;6.97;;;10.70;99.90;;;;;;5098265;28;20466;-44
2021/09/02 02:19:58;;;;;;;7.97;7.15;;;10.60;99.90;;;;;;5097514;28;20537;-45
2021/09/02 02:22:23;;;;;;;9.03;7.63;;;10.60;99.90;;;;;;5098129;28;20259;-45
2021/09/02 02:24:49;;;;;;;7.43;6.73;;;10.60;99.90;;;;;;5097852;28;20418;-45
2021/09/02 02:27:15;;;;;;;7.67;6.70;;;10.60;99.90;;;;;;5097990;28;20180;-44
2021/09/02 02:29:41;;;;;;;9.13;7.70;;;10.60;99.90;;;;;;5097425;28;20456;-44
2021/09/02 02:32:07;;;;;;;9.03;6.40;;;10.60;99.90;;;;;;5097416;28;20187;-44
2021/09/02 02:34:33;;;;;;;12.43;7.10;;;10.60;99.90;;;;;;5097783;28;20164;-43
2021/09/02 02:36:58;;;;;;;7.67;6.90;;;10.60;99.90;;;;;;5097841;28;20415;-45
2021/09/02 02:39:24;;;;;;;8.20;7.40;;;10.50;99.90;;;;;;5097716;28;20692;-44
2021/09/02 02:41:50;;;;;;;7.80;7.10;;;10.50;99.90;;;;;;5101848;28;20168;-44
2021/09/02 02:44:16;;;;;;;7.50;6.80;;;10.50;99.90;;;;;;5101832;28;20187;-44
2021/09/02 02:46:41;;;;;;;7.73;6.93;;;10.50;99.90;;;;;;5101845;28;20421;-45
2021/09/02 02:49:07;;;;;;;10.07;6.93;;;10.50;99.90;;;;;;5101630;28;20433;-45
2021/09/02 02:51:35;;;;;;;7.57;6.80;;;10.40;99.90;;;;;;5101195;28;20521;-44
2021/09/02 02:54:02;;;;;;;8.90;7.65;;;10.40;99.90;;;;;;5101329;28;20483;-45
2021/09/02 02:56:28;;;;;;;8.23;7.45;;;10.40;99.90;;;;;;5101568;28;20314;-44
2021/09/02 02:58:54;;;;;;;9.80;7.10;;;10.40;99.90;;;;;;5101058;28;20705;-44
2021/09/02 03:01:19;;;;;;;7.87;6.73;;;10.40;99.90;;;;;;5101728;28;20441;-44
2021/09/02 03:03:45;;;;;;;8.67;7.40;;;10.40;99.90;;;;;;5101476;28;20273;-44
2021/09/02 03:06:14;;;;;;;7.37;6.57;;;10.40;99.90;;;;;;5100929;28;20169;-44
2021/09/02 03:08:40;;;;;;;8.73;7.83;;;10.40;99.90;;;;;;5101379;28;20413;-44
2021/09/02 03:11:06;;;;;;;7.93;7.13;;;10.40;99.90;;;;;;5100757;28;20409;-44
2021/09/02 03:13:32;;;;;;;10.80;7.33;;;10.30;99.90;;;;;;5100865;28;20173;-44
2021/09/02 03:15:58;;;;;;;9.07;8.17;;;10.30;99.90;;;;;;5101144;28;20418;-45
2021/09/02 03:18:23;;;;;;;9.93;7.60;;;10.30;99.90;;;;;;5101141;28;20469;-44
2021/09/02 03:20:49;;;;;;;8.17;7.23;;;10.20;99.90;;;;;;5100809;28;20211;-44
2021/09/02 03:23:15;;;;;;;8.20;7.40;;;10.20;99.90;;;;;;5100968;28;20177;-44
2021/09/02 03:25:41;;;;;;;7.87;7.10;;;10.20;99.90;;;;;;5100271;28;20164;-44
2021/09/02 03:28:06;;;;;;;8.47;7.10;;;10.10;99.90;;;;;;5100343;28;20476;-44
2021/09/02 03:30:32;;;;;;;7.33;6.40;;;10.10;99.90;;;;;;5099935;28;20319;-45
2021/09/02 03:32:58;;;;;;;8.07;6.73;;;10.10;99.90;;;;;;5099703;28;20180;-44
2021/09/02 03:35:24;;;;;;;7.80;6.43;;;10.10;99.90;;;;;;5100410;28;20423;-44
2021/09/02 03:37:49;;;;;;;7.70;6.77;;;10.10;99.90;;;;;;5100252;28;20482;-44
2021/09/02 03:40:15;;;;;;;8.17;7.40;;;10.10;99.90;;;;;;5099890;28;20431;-42
2021/09/02 03:42:41;;;;;;;7.60;6.90;;;10.00;99.90;;;;;;5100592;28;20188;-44
2021/09/02 03:45:08;;;;;;;8.13;7.33;;;10.00;99.90;;;;;;5100175;28;20434;-44
2021/09/02 03:47:34;;;;;;;8.60;7.60;;;10.00;99.90;;;;;;5099876;28;20423;-44
2021/09/02 03:50:00;;;;;;;7.33;6.53;;;10.00;99.90;;;;;;5100133;28;20422;-45
2021/09/02 03:52:26;;;;;;;8.60;7.70;;;10.00;99.90;;;;;;5100317;28;20426;-45
2021/09/02 03:54:51;;;;;;;8.30;7.50;;;10.00;99.90;;;;;;5099918;28;20860;-45
2021/09/02 03:57:17;;;;;;;7.90;6.97;;;10.00;99.90;;;;;;5099907;28;20196;-45
2021/09/02 03:59:43;;;;;;;8.53;7.73;;;10.00;99.90;;;;;;5099824;28;20168;-44
2021/09/02 04:02:09;;;;;;;8.32;7.50;;;10.00;99.90;;;;;;5100231;28;20179;-46
2021/09/02 04:04:34;;;;;;;11.00;7.80;;;10.00;99.90;;;;;;5098621;28;20578;-46
2021/09/02 04:07:00;;;;;;;9.50;8.50;;;9.90;99.90;;;;;;5099441;28;20168;-46
2021/09/02 04:09:26;;;;;;;8.77;7.97;;;9.90;99.90;;;;;;5099533;28;20169;-46
2021/09/02 04:11:51;;;;;;;7.05;6.35;;;9.90;99.90;;;;;;5099658;28;20543;-45
2021/09/02 04:14:17;;;;;;;8.20;7.40;;;9.90;99.90;;;;;;5099239;28;20184;-46
2021/09/02 04:16:42;;;;;;;7.70;7.00;;;9.80;99.90;;;;;;5099695;28;20176;-46
2021/09/02 04:19:08;;;;;;;9.17;7.80;;;9.80;99.90;;;;;;5098397;28;20269;-46
2021/09/02 04:21:34;;;;;;;9.23;7.13;;;9.80;99.90;;;;;;5099339;28;20181;-46
2021/09/02 04:23:59;;;;;;;8.80;7.90;;;9.80;99.90;;;;;;5098422;28;20169;-46
2021/09/02 04:26:25;;;;;;;7.60;6.80;;;9.80;99.90;;;;;;5098185;28;20173;-46
2021/09/02 04:28:51;;;;;;;8.73;7.17;;;9.70;99.90;;;;;;5099348;28;20188;-46
2021/09/02 04:31:17;;;;;;;7.90;7.10;;;9.70;99.90;;;;;;5098869;28;20269;-46
2021/09/02 04:33:42;;;;;;;9.50;8.57;;;9.70;99.90;;;;;;5098895;28;20476;-46
2021/09/02 04:36:08;;;;;;;7.67;6.97;;;9.70;99.90;;;;;;5099252;28;20645;-46
2021/09/02 04:38:34;;;;;;;8.67;7.77;;;9.70;99.90;;;;;;5098912;28;20204;-46
2021/09/02 04:40:59;;;;;;;7.87;7.13;;;9.70;99.90;;;;;;5098645;28;20196;-46
2021/09/02 04:43:25;;;;;;;6.90;6.20;;;9.70;99.90;;;;;;5097578;28;20403;-46
2021/09/02 04:45:50;;;;;;;8.50;7.60;;;9.70;99.90;;;;;;5098611;28;20182;-46
2021/09/02 04:48:19;;;;;;;8.20;7.10;;;9.70;99.90;;;;;;5098606;28;20487;-46
2021/09/02 04:50:47;;;;;;;8.20;7.30;;;9.70;99.90;;;;;;5097326;28;20169;-46
2021/09/02 04:53:12;;;;;;;8.57;7.67;;;9.70;99.90;;;;;;5097856;28;20422;-46
2021/09/02 04:55:39;;;;;;;9.30;8.20;;;9.80;99.90;;;;;;5097357;28;20426;-46
2021/09/02 04:58:06;;;;;;;7.97;7.17;;;9.80;99.90;;;;;;5097728;28;20207;-46
2021/09/02 05:00:35;;;;;;;8.55;7.75;;;9.80;99.90;;;;;;5096936;28;20426;-46
2021/09/02 05:03:01;;;;;;;10.40;6.57;;;9.80;99.90;;;;;;5096999;28;20581;-46
2021/09/02 05:05:27;;;;;;;8.27;7.43;;;9.80;99.90;;;;;;5097349;28;20450;-46
2021/09/02 05:07:54;;;;;;;9.00;7.70;;;9.80;99.90;;;;;;5097975;28;20420;-46
2021/09/02 05:10:20;;;;;;;7.43;6.73;;;9.90;99.90;;;;;;5097889;28;20449;-46
2021/09/02 05:12:48;;;;;;;7.70;7.00;;;9.90;99.90;;;;;;5097789;28;20454;-46
2021/09/02 05:15:14;;;;;;;8.43;7.38;;;9.90;99.90;;;;;;5097138;28;20433;-46
2021/09/02 05:17:39;;;;;;;9.57;7.63;;;10.00;99.90;;;;;;5096783;28;20210;-46
2021/09/02 05:20:06;;;;;;;8.57;7.77;;;10.00;99.90;;;;;;5097972;28;20461;-46
2021/09/02 05:22:31;;;;;;;10.50;7.87;;;10.00;99.90;;;;;;5097759;28;20184;-46
2021/09/02 05:24:57;;;;;;;8.90;8.00;;;10.10;99.90;;;;;;5098286;28;20426;-46
2021/09/02 05:27:23;;;;;;;11.93;7.23;;;10.10;99.90;;;;;;5098294;28;20196;-45
2021/09/02 05:29:49;;;;;;;10.87;8.33;;;10.10;99.90;;;;;;5096568;28;20913;-46
2021/09/02 05:32:16;;;;;;;8.93;8.13;;;10.10;99.90;;;;;;5097942;28;20444;-46
2021/09/02 05:34:42;;;;;;;8.03;7.23;;;10.20;99.90;;;;;;5098004;28;20176;-47
2021/09/02 05:37:08;;;;;;;8.83;7.93;;;10.20;99.90;;;;;;5096850;28;20441;-47
2021/09/02 05:39:33;;;;;;;9.98;8.90;;;10.30;99.90;;;;;;5096694;28;20430;-47
2021/09/02 05:41:59;;;;;;;8.33;7.37;;;10.40;99.90;;;;;;5096014;28;20192;-47
2021/09/02 05:44:25;;;;;;;9.65;8.32;;;10.50;99.90;;;;;;5096795;28;20176;-47
2021/09/02 05:46:51;;;;;;;8.33;7.53;;;10.50;99.90;;;;;;5094793;28;20269;-47
2021/09/02 05:49:17;;;;;;;9.60;8.50;;;10.60;99.90;;;;;;5095757;28;20509;-48
2021/09/02 05:51:42;;;;;;;10.13;9.00;;;10.80;99.90;;;;;;5096114;28;20434;-47
2021/09/02 05:54:08;;;;;;;10.17;9.20;;;10.90;99.90;;;;;;5096750;28;20176;-47
2021/09/02 05:56:34;;;;;;;13.87;9.13;;;11.00;99.90;;;;;;5097035;28;20267;-47
2021/09/02 05:59:00;;;;;;;10.10;9.10;;;11.10;99.90;;;;;;5097412;28;20458;-47
2021/09/02 06:01:26;;;;;;;10.30;9.23;;;11.30;99.90;;;;;;5097256;28;20609;-47
2021/09/02 06:03:51;;;;;;;12.10;9.50;;;11.40;99.90;;;;;;5098141;28;20223;-47
2021/09/02 06:06:17;;;;;;;9.63;8.60;;;11.50;99.90;;;;;;5096798;28;20466;-47
2021/09/02 06:08:42;;;;;;;10.20;8.90;;;11.70;99.90;;;;;;5097543;28;20186;-47
2021/09/02 06:11:08;;;;;;;10.80;8.93;;;11.80;99.90;;;;;;5097571;28;20395;-47
2021/09/02 06:13:34;;;;;;;11.23;9.90;;;11.90;99.90;;;;;;5096949;28;20683;-47
2021/09/02 06:16:01;;;;;;;10.63;9.60;;;12.10;99.90;;;;;;5096128;28;20197;-47
2021/09/02 06:18:27;;;;;;;9.45;8.55;;;12.30;99.90;;;;;;5095199;28;20290;-47
2021/09/02 06:20:53;;;;;;;9.73;8.80;;;12.40;99.90;;;;;;5096117;28;20251;-47
2021/09/02 06:23:18;;;;;;;9.87;8.87;;;12.70;99.90;;;;;;5097399;28;20418;-47
2021/09/02 06:25:44;;;;;;;10.65;9.75;;;12.90;99.90;;;;;;5096614;28;20487;-47
2021/09/02 06:28:11;;;;;;;11.32;9.95;;;13.10;99.90;;;;;;5096528;28;20649;-47
2021/09/02 06:30:36;;;;;;;12.27;9.70;;;13.30;99.90;;;;;;5096769;28;20551;-47
2021/09/02 06:33:02;;;;;;;13.40;9.27;;;13.30;99.90;;;;;;5097092;28;20450;-47
2021/09/02 06:35:28;;;;;;;11.20;9.98;;;13.50;99.90;;;;;;5097399;28;20465;-47
2021/09/02 06:37:54;;;;;;;10.67;9.60;;;13.60;99.90;;;;;;5096827;28;20561;-47
2021/09/02 06:40:20;;;;;;;11.07;9.40;;;13.80;99.90;;;;;;5097080;28;20689;-47
2021/09/02 06:42:45;;;;;;;11.23;10.10;;;14.00;99.90;;;;;;5097540;28;20511;-47
2021/09/02 06:45:11;;;;;;;11.93;10.60;;;14.20;99.90;;;;;;5097413;28;20172;-47
2021/09/02 06:47:38;;;;;;;11.43;9.80;;;14.40;99.80;;;;;;5096178;28;20562;-47
2021/09/02 06:50:06;;;;;;;10.57;9.57;;;14.70;99.60;;;;;;5096655;28;20249;-47
2021/09/02 06:52:32;;;;;;;11.60;10.50;;;14.90;99.30;;;;;;5096641;28;20415;-47
2021/09/02 06:54:58;;;;;;;12.03;10.63;;;15.20;98.60;;;;;;5095493;28;20449;-47
2021/09/02 06:57:24;;;;;;;10.83;9.07;;;15.30;98.60;;;;;;5094607;28;20196;-47
2021/09/02 06:59:50;;;;;;;10.30;9.30;;;15.50;98.30;;;;;;5095801;28;20435;-47
2021/09/02 07:02:16;;;;;;;11.73;10.00;;;15.70;98.30;;;;;;5093964;28;20407;-47
2021/09/02 07:04:41;;;;;;;11.10;9.00;;;16.00;98.30;;;;;;5095694;28;20177;-47
2021/09/02 07:07:07;;;;;;;10.67;9.57;;;16.30;98.10;;;;;;5095499;28;20188;-48
2021/09/02 07:09:33;;;;;;;9.77;8.90;;;16.60;97.40;;;;;;5095656;28;20596;-47
2021/09/02 07:12:00;;;;;;;9.30;8.27;;;16.90;96.30;;;;;;5095882;28;20449;-48
2021/09/02 07:14:26;;;;;;;9.03;8.10;;;17.10;96.00;;;;;;5094514;28;20192;-48
2021/09/02 07:16:52;;;;;;;9.43;8.40;;;17.50;95.80;;;;;;5097417;28;20505;-48
2021/09/02 07:19:18;;;;;;;9.93;9.00;;;17.60;95.30;;;;;;5095853;28;20480;-48
2021/09/02 07:21:43;;;;;;;10.90;9.50;;;17.80;95.10;;;;;;5095994;28;20424;-48
2021/09/02 07:24:09;;;;;;;10.18;9.07;;;18.00;93.80;;;;;;5096343;28;20544;-47
2021/09/02 07:26:36;;;;;;;10.83;8.63;;;18.10;93.40;;;;;;5098390;28;20213;-47
2021/09/02 07:29:02;;;;;;;9.60;8.70;;;18.30;92.90;;;;;;5099013;28;20327;-47
2021/09/02 07:31:28;;;;;;;10.15;9.07;;;18.40;92.30;;;;;;5098864;28;20474;-47
2021/09/02 07:33:54;;;;;;;9.87;8.83;;;18.30;92.10;;;;;;5099743;28;20513;-47
2021/09/02 07:36:19;;;;;;;10.40;9.40;;;18.30;92.40;;;;;;5099105;28;20183;-47
2021/09/02 07:38:45;;;;;;;10.33;9.17;;;18.40;91.90;;;;;;5099838;28;20295;-47
2021/09/02 07:41:11;;;;;;;9.47;8.07;;;18.40;91.70;;;;;;5099119;28;20414;-47
2021/09/02 07:43:37;;;;;;;10.33;9.33;;;18.50;92.00;;;;;;5099474;28;20422;-47
2021/09/02 07:46:03;;;;;;;10.43;9.43;;;18.50;91.80;;;;;;5099883;28;20172;-57
2021/09/02 07:48:28;;;;;;;10.83;9.07;;;18.70;92.20;;;;;;5100035;28;20191;-47
2021/09/02 07:50:54;;;;;;;10.93;8.75;;;19.00;92.00;;;;;;5100625;28;20433;-47
2021/09/02 07:53:21;;;;;;;10.30;8.83;;;19.60;91.60;;;;;;5100195;28;20188;-47
2021/09/02 07:55:48;;;;;;;11.50;10.40;;;20.20;90.60;;;;;;5099867;28;20179;-47
2021/09/02 07:58:13;;;;;;;10.70;9.60;;;20.70;87.40;;;;;;5099399;28;20492;-47
2021/09/02 08:00:39;;;;;;;9.10;8.20;;;21.10;85.70;;;;;;5098244;28;20817;-47
2021/09/02 08:03:05;;;;;;;9.73;8.83;;;21.90;83.80;;;;;;5100003;28;20176;-47
2021/09/02 08:05:31;;;;;;;9.60;8.60;;;22.60;82.50;;;;;;5099426;28;20176;-47
2021/09/02 08:07:56;;;;;;;9.80;8.90;;;23.20;79.30;;;;;;5099895;28;20217;-47
2021/09/02 08:10:23;;;;;;;10.53;9.30;;;23.70;75.90;;;;;;5099516;28;20188;-47
2021/09/02 08:12:50;;;;;;;9.90;8.90;;;24.30;74.50;;;;;;5099261;28;20244;-47
2021/09/02 08:15:17;;;;;;;10.57;8.77;;;24.80;71.40;;;;;;5099460;28;20434;-47
2021/09/02 08:17:43;;;;;;;9.40;8.47;;;25.50;72.00;;;;;;5099248;28;20478;-47
2021/09/02 08:20:10;;;;;;;7.97;7.27;;;26.10;69.80;;;;;;5099336;28;20422;-47
2021/09/02 08:22:36;;;;;;;9.68;8.57;;;26.70;65.60;;;;;;5098673;28;20418;-47
2021/09/02 08:25:03;;;;;;;9.43;8.50;;;27.10;63.70;;;;;;5096453;28;20283;-47
2021/09/02 08:27:29;;;;;;;9.67;8.73;;;27.60;61.90;;;;;;5099270;28;20511;-47
2021/09/02 08:29:54;;;;;;;9.33;8.33;;;28.10;58.50;;;;;;5097904;28;20860;-47
2021/09/02 08:32:20;;;;;;;10.17;9.27;;;28.30;59.30;;;;;;5097566;28;20176;-47
2021/09/02 08:34:45;;;;;;;10.77;9.77;;;28.50;56.90;;;;;;5096979;28;20172;-47
2021/09/02 08:37:13;;;;;;;8.17;7.40;;;28.80;56.70;;;;;;5094033;28;20173;-47
2021/09/02 08:39:38;;;;;;;8.43;7.63;;;29.40;56.50;;;;;;5096278;28;20172;-47
2021/09/02 08:42:05;;;;;;;10.83;8.57;;;30.00;55.60;;;;;;5095850;28;20463;-48
2021/09/02 08:44:30;;;;;;;10.30;8.60;;;30.50;52.60;;;;;;5096819;28;20218;-47
2021/09/02 08:46:56;;;;;;;9.50;8.60;;;30.90;52.50;;;;;;5097751;28;20833;-47
2021/09/02 08:49:23;;;;;;;10.50;8.60;;;31.10;51.50;;;;;;5097531;28;20176;-46
2021/09/02 08:51:51;;;;;;;8.07;7.27;;;30.90;51.20;;;;;;5097080;28;20499;-48
2021/09/02 08:54:20;;;;;;;8.73;8.03;;;31.30;48.80;;;;;;5096072;28;20879;-48
2021/09/02 08:56:46;;;;;;;9.87;8.87;;;31.20;48.20;;;;;;5097507;28;20414;-43
2021/09/02 08:59:11;;;;;;;8.67;7.77;;;31.20;49.50;;;;;;5097648;28;20519;-40
2021/09/02 09:01:37;;;;;;;8.40;7.67;;;30.40;50.80;;;;;;5097493;28;20414;-42
2021/09/02 09:04:11;;;;;;;9.50;8.63;;;29.30;51.30;;;;;;5097747;28;20427;-41
2021/09/02 09:06:37;;;;;;;8.27;7.57;;;28.30;51.20;;;;;;5098368;28;20606;-38
2021/09/02 09:09:13;;;;;;;9.23;8.40;;;27.20;52.00;;;;;;5095786;28;20429;-41
2021/09/02 09:11:48;;;;;;;8.93;8.10;;;26.20;53.40;;;;;;5082908;28;20454;-39
2021/09/02 09:14:17;;;;;;;9.67;8.80;;;25.90;56.80;;;;;;5075021;28;20802;-41
2021/09/02 09:16:47;;;;;;;8.27;7.57;;;25.90;55.30;;;;;;5074568;28;21011;-41
2021/09/02 09:19:38;;;;;;;9.27;8.37;;;25.80;56.30;;;;;;5076184;28;20899;-38
2021/09/02 09:22:05;;;;;;;8.33;7.60;;;25.50;56.80;;;;;;5076377;28;20422;-41
2021/09/02 09:25:03;;;;;;;8.57;7.77;;;25.20;56.40;;;;;;5075982;28;20452;-39
2021/09/02 09:27:35;;;;;;;8.07;7.00;;;25.00;57.10;;;;;;5064128;28;20427;-40
2021/09/02 09:30:17;;;;;;;8.70;7.43;;;25.10;56.50;;;;;;5075246;28;20748;-39
2021/09/02 09:32:59;;;;;;;10.00;8.90;;;25.40;58.90;;;;;;5075421;28;20430;-41
2021/09/02 09:35:30;;;;;;;9.37;7.97;;;25.40;57.50;;;;;;5075294;28;20692;-39
2021/09/02 09:38:11;;;;;;;8.17;7.37;;;25.60;58.20;;;;;;5076644;28;20558;-39
2021/09/02 09:40:43;;;;;;;8.10;7.40;;;26.10;57.30;;;;;;5075547;28;20860;-45
2021/09/02 09:43:14;;;;;;;8.30;7.50;;;26.50;57.10;;;;;;5075188;28;20411;-42
2021/09/02 09:45:40;;;;;;;7.50;6.90;;;26.90;57.10;;;;;;5073927;28;20423;-42
2021/09/02 09:48:27;;;;;;;8.60;7.83;;;27.40;55.80;;;;;;5075957;28;20886;-39
2021/09/02 09:51:17;;;;;;;9.18;8.27;;;27.80;55.50;;;;;;5065580;28;20431;-40
2021/09/02 09:53:45;;;;;;;8.23;7.43;;;27.70;54.40;;;;;;5074831;28;20455;-40
2021/09/02 09:56:11;;;;;;;7.90;7.23;;;27.50;54.00;;;;;;5075550;28;20541;-39
2021/09/02 09:58:37;;;;;;;8.03;7.23;;;27.50;54.60;;;;;;5075357;28;20524;-39
2021/09/02 10:01:05;;;;;;;8.27;7.57;;;27.80;54.50;;;;;;5076700;28;20457;-41
2021/09/02 10:03:32;;;;;;;8.80;7.60;;;27.80;52.40;;;;;;5094464;28;20422;-42
2021/09/02 10:06:06;;;;;;;8.17;7.37;;;27.30;51.80;;;;;;5095841;28;20528;-42
2021/09/02 10:08:35;;;;;;;7.47;6.53;;;26.80;52.40;;;;;;5093149;28;20501;-41
2021/09/02 10:11:05;;;;;;;8.82;7.57;;;26.40;53.50;;;;;;5096154;28;20534;-43
2021/09/02 10:13:31;;;;;;;8.13;7.30;;;26.00;55.50;;;;;;5095438;28;20246;-40
2021/09/02 10:15:59;;;;;;;8.30;7.60;;;26.10;56.90;;;;;;5093976;28;20426;-41
2021/09/02 10:18:26;;;;;;;8.07;7.38;;;26.60;54.30;;;;;;5088197;28;20572;-40
2021/09/02 10:20:52;;;;;;;8.47;7.77;;;26.90;53.90;;;;;;5087506;28;20177;-40
2021/09/02 10:23:25;;;;;;;7.90;7.07;;;27.10;54.80;;;;;;5093789;28;20501;-43
2021/09/02 10:25:52;;;;;;;9.67;7.77;;;27.30;52.50;;;;;;5094177;28;20422;-41
2021/09/02 10:28:29;;;;;;;8.73;7.30;;;26.90;52.70;;;;;;5087398;28;20442;-44
2021/09/02 10:30:57;;;;;;;8.67;7.77;;;26.70;53.30;;;;;;5035751;28;1188965;-41
2021/09/02 10:33:41;;;;;;;9.73;8.73;;;26.70;53.80;;;;;;5093141;28;20507;-41
2021/09/02 10:36:15;;;;;;;7.93;7.30;;;26.30;54.10;;;;;;5083856;28;20448;-41
2021/09/02 10:38:49;;;;;;;9.20;8.40;;;26.20;55.00;;;;;;5096423;28;20462;-43
2021/09/02 10:41:36;;;;;;;7.93;7.20;;;26.30;55.10;;;;;;5096941;28;20510;-42
2021/09/02 10:44:09;;;;;;;8.60;7.77;;;26.60;56.80;;;;;;5082710;28;20859;-41
2021/09/02 10:46:46;;;;;;;9.20;8.40;;;27.30;53.10;;;;;;5093111;28;20500;-42
2021/09/02 10:49:19;;;;;;;8.13;7.32;;;27.40;53.70;;;;;;5094964;28;20525;-42
2021/09/02 10:51:50;;;;;;;11.07;7.57;;;28.10;55.00;;;;;;5093708;28;20180;-41
2021/09/02 10:54:22;;;;;;;8.40;7.70;;;28.60;53.90;;;;;;5094512;28;20669;-41
2021/09/02 10:57:11;;;;;;;8.50;7.03;;;28.90;53.90;;;;;;5094492;28;20414;-42
2021/09/02 10:59:50;;;;;;;8.77;7.90;;;29.20;50.50;;;;;;5081802;28;20475;-41
2021/09/02 11:02:17;;;;;;;7.83;7.10;;;29.20;51.90;;;;;;5079198;28;20687;-42
2021/09/02 11:04:48;;;;;;;8.50;7.70;;;29.30;50.10;;;;;;5082632;28;20953;-42
2021/09/02 11:07:15;;;;;;;8.65;7.95;;;29.00;51.90;;;;;;5090852;28;20520;-46
2021/09/02 11:09:42;;;;;;;8.30;7.40;;;28.80;50.00;;;;;;5100227;28;20175;-40
2021/09/02 11:12:13;;;;;;;8.87;8.17;;;28.80;51.00;;;;;;5101020;28;20475;-41
2021/09/02 11:14:47;;;;;;;9.00;7.20;;;29.10;50.20;;;;;;5090645;28;20439;-41
2021/09/02 11:17:14;;;;;;;8.60;7.90;;;29.10;50.50;;;;;;5085650;28;20410;-40
2021/09/02 11:19:42;;;;;;;8.70;7.20;;;28.90;49.30;;;;;;5086585;28;20413;-42
2021/09/02 11:22:13;;;;;;;7.57;6.93;;;28.90;49.60;;;;;;5096957;28;20479;-42
2021/09/02 11:24:57;;;;;;;8.80;7.45;;;29.00;49.10;;;;;;5096832;28;20414;-40
2021/09/02 11:27:29;;;;;;;7.90;7.10;;;28.40;50.80;;;;;;5095164;28;20721;-41
2021/09/02 11:30:16;;;;;;;7.30;6.60;;;28.90;49.10;;;;;;5091789;28;20758;-40
2021/09/02 11:32:42;;;;;;;8.57;6.57;;;28.80;49.80;;;;;;5085994;28;20861;-40
2021/09/02 11:35:09;;;;;;;8.93;6.40;;;29.20;50.10;;;;;;5093112;28;20819;-42
2021/09/02 11:37:38;;;;;;;7.43;6.47;;;29.30;47.90;;;;;;5099352;28;20461;-40
2021/09/02 11:40:05;;;;;;;7.40;6.60;;;28.80;47.50;;;;;;5097599;28;20434;-41
2021/09/02 11:42:33;;;;;;;13.00;6.50;;;28.50;47.20;;;;;;5096120;28;20427;-41
2021/09/02 11:45:00;;;;;;;8.07;7.37;;;28.40;47.40;;;;;;5096553;28;20431;-42
2021/09/02 11:47:33;;;;;;;8.03;6.33;;;28.30;47.10;;;;;;5092078;28;20441;-41
2021/09/02 11:50:00;;;;;;;7.43;6.73;;;28.20;47.20;;;;;;5085376;28;20465;-42
2021/09/02 11:52:46;;;;;;;7.67;6.53;;;28.20;47.50;;;;;;5076546;28;20455;-40
2021/09/02 11:55:31;;;;;;;7.07;6.37;;;28.10;47.20;;;;;;5078429;28;20493;-41
2021/09/02 11:58:05;;;;;;;6.80;6.07;;;28.00;47.20;;;;;;5077543;28;20470;-44
2021/09/02 12:00:33;;;;;;;6.77;6.13;;;27.90;47.80;;;;;;5077319;28;20423;-41
2021/09/02 12:03:00;;;;;;;6.93;6.25;;;28.30;48.00;;;;;;5077793;28;20421;-42
2021/09/02 12:05:35;;;;;;;6.83;6.23;;;28.90;47.00;;;;;;5077292;28;20223;-42
2021/09/02 12:08:01;;;;;;;7.47;6.73;;;28.70;46.80;;;;;;5078132;28;21018;-41
2021/09/02 12:10:27;;;;;;;10.93;7.13;;;28.80;48.10;;;;;;5077259;28;20442;-40
2021/09/02 12:12:53;;;;;;;6.97;6.07;;;28.90;46.40;;;;;;5077042;28;20415;-39
2021/09/02 12:15:29;;;;;;;7.00;6.40;;;28.70;46.70;;;;;;5078629;28;20185;-45
2021/09/02 12:18:09;;;;;;;6.37;5.83;;;28.80;46.60;;;;;;5079535;28;20470;-41
2021/09/02 12:20:36;;;;;;;5.80;5.30;;;29.00;46.50;;;;;;5078491;28;20419;-43
2021/09/02 12:23:44;;;;;;;6.53;5.83;;;28.70;45.90;;;;;;5078688;28;20502;-42
2021/09/02 12:26:10;;;;;;;6.00;5.50;;;28.20;47.00;;;;;;5067023;28;20427;-39
2021/09/02 12:28:42;;;;;;;6.03;5.30;;;27.80;48.60;;;;;;5077671;28;20422;-39
2021/09/02 12:31:15;;;;;;;6.80;6.10;;;28.50;49.10;;;;;;5077755;28;20463;-44
2021/09/02 12:33:59;;;;;;;6.80;6.10;;;29.70;46.70;;;;;;5077826;28;20702;-43
2021/09/02 12:36:27;;;;;;;6.25;5.65;;;30.60;45.30;;;;;;5076625;28;20425;-42
2021/09/02 12:38:52;;;;;;;6.73;6.03;;;30.80;43.20;;;;;;5076672;28;20212;-42
2021/09/02 12:41:27;;;;;;;5.77;5.27;;;30.50;43.60;;;;;;5076708;28;20415;-40
2021/09/02 12:44:00;;;;;;;8.17;5.87;;;30.10;45.70;;;;;;5078038;28;20187;-42
2021/09/02 12:46:26;;;;;;;6.60;6.00;;;30.60;46.80;;;;;;5077288;28;20844;-42
2021/09/02 12:49:04;;;;;;;7.23;6.53;;;30.70;43.00;;;;;;5076700;28;20416;-47
2021/09/02 12:51:30;;;;;;;6.43;5.60;;;30.40;43.50;;;;;;5077445;28;20841;-43